Big Bear Station Historical Data
Daily Summary for June 12, 2017 Units:  English    Metric   Both
« Previous Day
Next Day »
Daily Weekly Monthly Yearly Custom
  High: Low: Average:
Temperature: 65.5 °F 32.4 °F 48.4 °F
Dew Point: 42.6 °F 9.1 °F 28.6 °F
Humidity: 90 % 18 % 52 %
Wind Speed: 11.9 mph 0.0 mph 2.9 mph
Wind Gust: -999.0 mph - -
Wind:- - West
Pressure: 30.13 in 30.02 in -
Precipitation: 0.00 in    
Historical Graphs
 
 
Tabular Data for June 12, 2017
Time Temperature Dew Point Pressure Wind Wind Speed Wind Gust Humidity Rainfall Rate (Hourly)
00:12 37.9 °F 33.8 °F 30.02 in NNW 7.8 mph -999.0 mph 85 % 0 in
00:28 37.9 °F 32.6 °F 30.03 in NNW 5.3 mph -999.0 mph 81 % 0 in
00:43 37.8 °F 33.1 °F 30.03 in West 2.7 mph -999.0 mph 83 % 0 in
00:58 36.9 °F 33.1 °F 30.03 in North 2.2 mph -999.0 mph 86 % 0 in
01:14 36.3 °F 32.5 °F 30.03 in Calm   -999.0 mph 86 % 0 in
01:29 36.0 °F 32.5 °F 30.02 in Calm   -999.0 mph 87 % 0 in
01:45 35.8 °F 31.7 °F 30.02 in WSW 2.7 mph -999.0 mph 85 % 0 in
02:00 36.0 °F 31.0 °F 30.02 in Calm   -999.0 mph 82 % 0 in
02:16 36.3 °F 30.7 °F 30.02 in WNW 3.2 mph -999.0 mph 80 % 0 in
02:31 36.5 °F 31.5 °F 30.02 in WNW 2.2 mph -999.0 mph 82 % 0 in
02:46 36.1 °F 31.4 °F 30.03 in NNW 3.7 mph -999.0 mph 83 % 0 in
03:02 35.6 °F 30.9 °F 30.03 in SSW 1.1 mph -999.0 mph 83 % 0 in
03:17 35.2 °F 30.9 °F 30.03 in West 1.1 mph -999.0 mph 84 % 0 in
03:32 35.1 °F 31.3 °F 30.03 in Calm   -999.0 mph 86 % 0 in
03:47 34.5 °F 31.3 °F 30.03 in Calm   -999.0 mph 88 % 0 in
04:02 34.3 °F 31.4 °F 30.03 in WNW 1.7 mph -999.0 mph 89 % 0 in
04:18 34.2 °F 31.3 °F 30.03 in SSE 2.7 mph -999.0 mph 89 % 0 in
04:33 34.0 °F 31.4 °F 30.03 in WNW 1.1 mph -999.0 mph 90 % 0 in
04:48 33.8 °F 30.9 °F 30.03 in Calm   -999.0 mph 89 % 0 in
05:03 33.3 °F 30.4 °F 30.03 in Calm   -999.0 mph 89 % 0 in
05:18 32.7 °F 28.4 °F 30.03 in South 1.1 mph -999.0 mph 84 % 0 in
05:34 32.4 °F 22.3 °F 30.03 in Calm   -999.0 mph 66 % 0 in
05:49 32.7 °F 24.0 °F 30.04 in Calm   -999.0 mph 70 % 0 in
06:04 34.5 °F 21.6 °F 30.04 in West 1.7 mph -999.0 mph 59 % 0 in
06:19 36.0 °F 18.7 °F 30.05 in North 2.2 mph -999.0 mph 49 % 0 in
06:34 35.8 °F 16.0 °F 30.05 in NW 1.7 mph -999.0 mph 44 % 0 in
06:50 37.4 °F 15.8 °F 30.06 in Calm   -999.0 mph 41 % 0 in
07:05 39.2 °F 13.8 °F 30.06 in Calm   -999.0 mph 35 % 0 in
07:20 40.8 °F 14.6 °F 30.07 in Calm   -999.0 mph 34 % 0 in
07:35 42.3 °F 13.0 °F 30.07 in NNW 3.7 mph -999.0 mph 30 % 0 in
07:50 43.9 °F 11.2 °F 30.07 in WNW 3.7 mph -999.0 mph 26 % 0 in
08:06 45.5 °F 10.8 °F 30.07 in West 2.2 mph -999.0 mph 24 % 0 in
08:21 46.6 °F 9.7 °F 30.09 in WNW 4.2 mph -999.0 mph 22 % 0 in
08:36 47.5 °F 10.5 °F 30.08 in NW 11.9 mph -999.0 mph 22 % 0 in
08:51 48.2 °F 12.1 °F 30.09 in West 4.7 mph -999.0 mph 23 % 0 in
09:07 48.7 °F 11.5 °F 30.09 in NNW 6.3 mph -999.0 mph 22 % 0 in
09:22 49.3 °F 17.5 °F 30.09 in NNW 4.2 mph -999.0 mph 28 % 0 in
09:38 49.8 °F 9.1 °F 30.09 in SE 2.2 mph -999.0 mph 19 % 0 in
09:53 51.1 °F 12.5 °F 30.09 in North 6.3 mph -999.0 mph 21 % 0 in
10:09 51.4 °F 14.8 °F 30.09 in NNW 4.7 mph -999.0 mph 23 % 0 in
10:24 52.2 °F 16.5 °F 30.10 in WNW 3.7 mph -999.0 mph 24 % 0 in
10:39 52.7 °F 15.9 °F 30.10 in NNW 4.7 mph -999.0 mph 23 % 0 in
10:54 54.1 °F 13.9 °F 30.10 in NNW 4.7 mph -999.0 mph 20 % 0 in
11:09 55.9 °F 16.5 °F 30.10 in NNW 3.2 mph -999.0 mph 21 % 0 in
11:25 56.5 °F 13.5 °F 30.10 in NW 3.7 mph -999.0 mph 18 % 0 in
11:40 57.7 °F 20.1 °F 30.11 in NNW 4.2 mph -999.0 mph 23 % 0 in
11:55 58.8 °F 15.3 °F 30.11 in NNW 4.7 mph -999.0 mph 18 % 0 in
12:11 61.0 °F 18.4 °F 30.11 in West 4.2 mph -999.0 mph 19 % 0 in
12:26 62.1 °F 20.5 °F 30.11 in NE 2.7 mph -999.0 mph 20 % 0 in
12:41 61.5 °F 23.3 °F 30.11 in NW 3.7 mph -999.0 mph 23 % 0 in
12:56 63.3 °F 24.8 °F 30.11 in North 3.7 mph -999.0 mph 23 % 0 in
13:11 64.9 °F 24.0 °F 30.11 in NNE 2.7 mph -999.0 mph 21 % 0 in
13:27 64.2 °F 25.6 °F 30.11 in NW 6.3 mph -999.0 mph 23 % 0 in
13:43 65.5 °F 28.7 °F 30.12 in NNW 3.7 mph -999.0 mph 25 % 0 in
13:58 64.0 °F 34.3 °F 30.11 in NNE 4.2 mph -999.0 mph 33 % 0 in
14:14 63.5 °F 38.1 °F 30.12 in NNW 4.7 mph -999.0 mph 39 % 0 in
14:29 63.9 °F 37.8 °F 30.12 in WNW 6.8 mph -999.0 mph 38 % 0 in
14:44 64.0 °F 35.8 °F 30.12 in West 5.8 mph -999.0 mph 35 % 0 in
14:59 63.3 °F 40.4 °F 30.12 in SW 3.2 mph -999.0 mph 43 % 0 in
15:15 63.0 °F 40.7 °F 30.12 in NW 8.3 mph -999.0 mph 44 % 0 in
15:30 62.6 °F 40.4 °F 30.12 in ESE 3.2 mph -999.0 mph 44 % 0 in
15:45 63.3 °F 41.6 °F 30.12 in NNW 5.3 mph -999.0 mph 45 % 0 in
16:00 61.5 °F 40.0 °F 30.13 in ESE 2.7 mph -999.0 mph 45 % 0 in
16:15 61.0 °F 40.1 °F 30.12 in NW 8.3 mph -999.0 mph 46 % 0 in
16:31 62.4 °F 39.0 °F 30.13 in NW 5.8 mph -999.0 mph 42 % 0 in
16:46 65.5 °F 39.2 °F 30.12 in NNW 3.2 mph -999.0 mph 38 % 0 in
17:01 65.5 °F 41.2 °F 30.12 in WNW 4.7 mph -999.0 mph 41 % 0 in
17:17 65.1 °F 41.4 °F 30.12 in NW 4.7 mph -999.0 mph 42 % 0 in
17:32 63.3 °F 41.0 °F 30.12 in NW 6.3 mph -999.0 mph 44 % 0 in
17:47 63.7 °F 41.4 °F 30.11 in NW 4.2 mph -999.0 mph 44 % 0 in
18:03 63.1 °F 41.4 °F 30.11 in WSW 3.2 mph -999.0 mph 45 % 0 in
18:18 63.5 °F 42.3 °F 30.11 in NNW 3.2 mph -999.0 mph 46 % 0 in
18:33 61.9 °F 42.5 °F 30.12 in North 4.2 mph -999.0 mph 49 % 0 in
18:48 60.3 °F 42.6 °F 30.12 in NNE 3.2 mph -999.0 mph 52 % 0 in
19:04 59.0 °F 41.9 °F 30.12 in ESE 1.7 mph -999.0 mph 53 % 0 in
19:19 54.5 °F 41.3 °F 30.12 in West 2.2 mph -999.0 mph 61 % 0 in
19:34 51.8 °F 41.2 °F 30.12 in West 1.1 mph -999.0 mph 67 % 0 in
19:49 49.8 °F 41.1 °F 30.12 in Calm   -999.0 mph 72 % 0 in
20:05 48.7 °F 40.8 °F 30.12 in South 1.1 mph -999.0 mph 74 % 0 in
20:20 47.3 °F 40.1 °F 30.12 in Calm   -999.0 mph 76 % 0 in
20:35 46.4 °F 39.6 °F 30.11 in Calm   -999.0 mph 77 % 0 in
20:50 45.5 °F 39.7 °F 30.11 in Calm   -999.0 mph 80 % 0 in
21:05 44.6 °F 38.5 °F 30.11 in South 1.7 mph -999.0 mph 79 % 0 in
21:21 43.3 °F 36.6 °F 30.11 in South 1.7 mph -999.0 mph 77 % 0 in
21:36 42.6 °F 34.2 °F 30.11 in South 2.7 mph -999.0 mph 72 % 0 in
21:51 41.7 °F 33.7 °F 30.12 in SE 1.7 mph -999.0 mph 73 % 0 in
22:06 41.2 °F 30.7 °F 30.12 in SSE 1.1 mph -999.0 mph 66 % 0 in
22:21 40.5 °F 26.0 °F 30.12 in Calm   -999.0 mph 56 % 0 in
22:37 39.9 °F 25.5 °F 30.12 in SE 1.1 mph -999.0 mph 56 % 0 in
22:52 39.4 °F 27.5 °F 30.12 in South 1.1 mph -999.0 mph 62 % 0 in
23:07 38.8 °F 21.3 °F 30.11 in South 2.2 mph -999.0 mph 49 % 0 in
23:22 38.8 °F 20.8 °F 30.11 in SSW 2.7 mph -999.0 mph 48 % 0 in
23:37 38.7 °F 23.0 °F 30.11 in South 2.2 mph -999.0 mph 53 % 0 in
23:53 38.5 °F 23.7 °F 30.11 in Calm   -999.0 mph 55 % 0 in
Big Bear CA Weather
Compliments of Weather Underground - 1.5 mb